sensor_id;sensor_type;location;lat;lon;timestamp;P1;durP1;ratioP1;P2;durP2;ratioP2
76606;SDS011;65498;50.916;4.698;2022-12-07T00:01:25;8.18;;;3.08;;
76606;SDS011;65498;50.916;4.698;2022-12-07T00:03:58;8.28;;;3.35;;
76606;SDS011;65498;50.916;4.698;2022-12-07T00:06:28;6.05;;;2.70;;
76606;SDS011;65498;50.916;4.698;2022-12-07T00:08:57;6.20;;;2.60;;
76606;SDS011;65498;50.916;4.698;2022-12-07T00:11:25;6.75;;;2.87;;
76606;SDS011;65498;50.916;4.698;2022-12-07T00:13:54;7.75;;;3.15;;
76606;SDS011;65498;50.916;4.698;2022-12-07T00:16:24;7.15;;;3.35;;
76606;SDS011;65498;50.916;4.698;2022-12-07T00:21:26;6.08;;;2.90;;
76606;SDS011;65498;50.916;4.698;2022-12-07T00:23:54;8.48;;;3.20;;
76606;SDS011;65498;50.916;4.698;2022-12-07T00:26:24;7.80;;;3.23;;
76606;SDS011;65498;50.916;4.698;2022-12-07T00:28:57;6.80;;;3.02;;
76606;SDS011;65498;50.916;4.698;2022-12-07T00:31:28;7.97;;;3.30;;
76606;SDS011;65498;50.916;4.698;2022-12-07T00:33:58;7.30;;;2.80;;
76606;SDS011;65498;50.916;4.698;2022-12-07T00:36:26;7.35;;;3.45;;
76606;SDS011;65498;50.916;4.698;2022-12-07T00:38:54;7.20;;;3.37;;
76606;SDS011;65498;50.916;4.698;2022-12-07T00:43:52;7.28;;;3.47;;
76606;SDS011;65498;50.916;4.698;2022-12-07T00:46:20;9.10;;;3.25;;
76606;SDS011;65498;50.916;4.698;2022-12-07T00:48:49;7.65;;;3.08;;
76606;SDS011;65498;50.916;4.698;2022-12-07T00:51:19;7.33;;;3.20;;
76606;SDS011;65498;50.916;4.698;2022-12-07T00:53:48;7.15;;;2.92;;
76606;SDS011;65498;50.916;4.698;2022-12-07T00:56:26;6.65;;;2.80;;
76606;SDS011;65498;50.916;4.698;2022-12-07T00:58:56;8.35;;;2.95;;
76606;SDS011;65498;50.916;4.698;2022-12-07T01:01:29;8.53;;;3.58;;
76606;SDS011;65498;50.916;4.698;2022-12-07T01:03:58;6.90;;;3.00;;
76606;SDS011;65498;50.916;4.698;2022-12-07T01:06:29;7.60;;;3.58;;
76606;SDS011;65498;50.916;4.698;2022-12-07T01:08:57;8.33;;;3.55;;
76606;SDS011;65498;50.916;4.698;2022-12-07T01:11:27;6.87;;;3.17;;
76606;SDS011;65498;50.916;4.698;2022-12-07T01:13:56;6.55;;;2.70;;
76606;SDS011;65498;50.916;4.698;2022-12-07T01:16:27;7.65;;;3.22;;
76606;SDS011;65498;50.916;4.698;2022-12-07T01:18:57;8.63;;;3.70;;
76606;SDS011;65498;50.916;4.698;2022-12-07T01:21:30;8.15;;;3.20;;
76606;SDS011;65498;50.916;4.698;2022-12-07T01:24:00;6.78;;;2.95;;
76606;SDS011;65498;50.916;4.698;2022-12-07T01:26:29;7.13;;;3.47;;
76606;SDS011;65498;50.916;4.698;2022-12-07T01:28:57;7.72;;;3.27;;
76606;SDS011;65498;50.916;4.698;2022-12-07T01:31:26;7.47;;;3.22;;
76606;SDS011;65498;50.916;4.698;2022-12-07T01:33:55;7.65;;;3.10;;
76606;SDS011;65498;50.916;4.698;2022-12-07T01:36:30;8.38;;;3.40;;
76606;SDS011;65498;50.916;4.698;2022-12-07T01:38:57;7.22;;;3.15;;
76606;SDS011;65498;50.916;4.698;2022-12-07T01:41:27;8.30;;;3.17;;
76606;SDS011;65498;50.916;4.698;2022-12-07T01:46:49;7.55;;;3.33;;
76606;SDS011;65498;50.916;4.698;2022-12-07T01:52:14;17.23;;;5.78;;
76606;SDS011;65498;50.916;4.698;2022-12-07T01:54:53;11.65;;;4.47;;
76606;SDS011;65498;50.916;4.698;2022-12-07T01:57:23;12.20;;;4.42;;
76606;SDS011;65498;50.916;4.698;2022-12-07T01:59:51;12.60;;;4.58;;
76606;SDS011;65498;50.916;4.698;2022-12-07T02:02:23;15.88;;;5.05;;
76606;SDS011;65498;50.916;4.698;2022-12-07T02:04:54;13.72;;;4.45;;
76606;SDS011;65498;50.916;4.698;2022-12-07T02:07:24;9.68;;;3.67;;
76606;SDS011;65498;50.916;4.698;2022-12-07T02:09:54;13.85;;;4.05;;
76606;SDS011;65498;50.916;4.698;2022-12-07T02:12:22;13.15;;;4.60;;
76606;SDS011;65498;50.916;4.698;2022-12-07T02:14:51;10.70;;;3.75;;
76606;SDS011;65498;50.916;4.698;2022-12-07T02:30:38;9.15;;;3.72;;
76606;SDS011;65498;50.916;4.698;2022-12-07T02:35:41;11.00;;;3.62;;
76606;SDS011;65498;50.916;4.698;2022-12-07T02:38:16;9.28;;;3.80;;
76606;SDS011;65498;50.916;4.698;2022-12-07T02:40:50;11.65;;;3.98;;
76606;SDS011;65498;50.916;4.698;2022-12-07T02:43:23;9.08;;;3.45;;
76606;SDS011;65498;50.916;4.698;2022-12-07T02:45:59;11.28;;;3.33;;
76606;SDS011;65498;50.916;4.698;2022-12-07T02:48:28;9.68;;;3.92;;
76606;SDS011;65498;50.916;4.698;2022-12-07T02:50:57;11.12;;;3.30;;
76606;SDS011;65498;50.916;4.698;2022-12-07T03:04:31;7.97;;;3.45;;
76606;SDS011;65498;50.916;4.698;2022-12-07T03:07:05;9.40;;;3.55;;
76606;SDS011;65498;50.916;4.698;2022-12-07T03:09:59;9.93;;;3.92;;
76606;SDS011;65498;50.916;4.698;2022-12-07T03:13:17;9.10;;;3.45;;
76606;SDS011;65498;50.916;4.698;2022-12-07T03:15:23;9.05;;;3.35;;
76606;SDS011;65498;50.916;4.698;2022-12-07T03:17:47;8.95;;;3.27;;
76606;SDS011;65498;50.916;4.698;2022-12-07T03:20:18;8.95;;;3.52;;
76606;SDS011;65498;50.916;4.698;2022-12-07T03:22:48;9.88;;;3.30;;
76606;SDS011;65498;50.916;4.698;2022-12-07T03:25:17;7.42;;;2.80;;
76606;SDS011;65498;50.916;4.698;2022-12-07T03:30:22;7.58;;;2.83;;
76606;SDS011;65498;50.916;4.698;2022-12-07T03:32:58;9.85;;;3.55;;
76606;SDS011;65498;50.916;4.698;2022-12-07T03:35:30;9.95;;;3.20;;
76606;SDS011;65498;50.916;4.698;2022-12-07T03:41:09;6.60;;;2.70;;
76606;SDS011;65498;50.916;4.698;2022-12-07T03:43:42;7.90;;;3.05;;
76606;SDS011;65498;50.916;4.698;2022-12-07T03:54:46;8.70;;;3.60;;
76606;SDS011;65498;50.916;4.698;2022-12-07T03:57:17;9.28;;;3.98;;
76606;SDS011;65498;50.916;4.698;2022-12-07T03:59:47;8.45;;;3.52;;
76606;SDS011;65498;50.916;4.698;2022-12-07T04:02:15;6.87;;;3.02;;
76606;SDS011;65498;50.916;4.698;2022-12-07T04:04:43;7.22;;;2.62;;
76606;SDS011;65498;50.916;4.698;2022-12-07T04:07:11;7.28;;;2.70;;
76606;SDS011;65498;50.916;4.698;2022-12-07T04:09:38;11.78;;;2.83;;
76606;SDS011;65498;50.916;4.698;2022-12-07T04:12:06;7.35;;;2.77;;
76606;SDS011;65498;50.916;4.698;2022-12-07T04:14:34;8.50;;;3.05;;
76606;SDS011;65498;50.916;4.698;2022-12-07T04:17:01;6.67;;;2.55;;
76606;SDS011;65498;50.916;4.698;2022-12-07T04:19:30;7.22;;;3.05;;
76606;SDS011;65498;50.916;4.698;2022-12-07T04:22:00;7.45;;;3.05;;
76606;SDS011;65498;50.916;4.698;2022-12-07T04:24:28;6.53;;;2.70;;
76606;SDS011;65498;50.916;4.698;2022-12-07T04:26:56;7.05;;;2.33;;
76606;SDS011;65498;50.916;4.698;2022-12-07T04:29:24;8.68;;;3.90;;
76606;SDS011;65498;50.916;4.698;2022-12-07T04:31:53;8.15;;;2.62;;
76606;SDS011;65498;50.916;4.698;2022-12-07T04:34:21;6.83;;;2.83;;
76606;SDS011;65498;50.916;4.698;2022-12-07T04:36:48;5.78;;;2.47;;
76606;SDS011;65498;50.916;4.698;2022-12-07T04:41:52;6.87;;;2.58;;
76606;SDS011;65498;50.916;4.698;2022-12-07T04:44:21;6.95;;;2.42;;
76606;SDS011;65498;50.916;4.698;2022-12-07T04:46:50;7.40;;;2.62;;
76606;SDS011;65498;50.916;4.698;2022-12-07T04:49:18;7.30;;;3.15;;
76606;SDS011;65498;50.916;4.698;2022-12-07T04:51:46;6.05;;;2.70;;
76606;SDS011;65498;50.916;4.698;2022-12-07T04:54:14;6.20;;;2.45;;
76606;SDS011;65498;50.916;4.698;2022-12-07T04:56:43;5.92;;;2.30;;
76606;SDS011;65498;50.916;4.698;2022-12-07T04:59:11;6.35;;;2.50;;
76606;SDS011;65498;50.916;4.698;2022-12-07T05:01:40;5.37;;;2.40;;
76606;SDS011;65498;50.916;4.698;2022-12-07T05:04:08;5.50;;;2.40;;
76606;SDS011;65498;50.916;4.698;2022-12-07T05:06:36;6.30;;;2.60;;
76606;SDS011;65498;50.916;4.698;2022-12-07T05:09:03;7.37;;;2.70;;
76606;SDS011;65498;50.916;4.698;2022-12-07T05:11:31;6.47;;;2.50;;
76606;SDS011;65498;50.916;4.698;2022-12-07T05:14:05;6.87;;;2.50;;
76606;SDS011;65498;50.916;4.698;2022-12-07T05:16:35;7.05;;;2.85;;
76606;SDS011;65498;50.916;4.698;2022-12-07T05:19:03;8.10;;;2.20;;
76606;SDS011;65498;50.916;4.698;2022-12-07T05:21:31;6.25;;;2.40;;
76606;SDS011;65498;50.916;4.698;2022-12-07T05:23:59;5.10;;;2.10;;
76606;SDS011;65498;50.916;4.698;2022-12-07T05:26:27;6.22;;;2.25;;
76606;SDS011;65498;50.916;4.698;2022-12-07T05:28:55;7.08;;;2.10;;
76606;SDS011;65498;50.916;4.698;2022-12-07T05:31:23;5.62;;;2.35;;
76606;SDS011;65498;50.916;4.698;2022-12-07T05:33:52;6.85;;;2.92;;
76606;SDS011;65498;50.916;4.698;2022-12-07T05:36:20;6.20;;;2.25;;
76606;SDS011;65498;50.916;4.698;2022-12-07T05:38:48;6.25;;;2.40;;
76606;SDS011;65498;50.916;4.698;2022-12-07T05:41:16;6.50;;;2.47;;
76606;SDS011;65498;50.916;4.698;2022-12-07T05:44:04;5.60;;;2.58;;
76606;SDS011;65498;50.916;4.698;2022-12-07T05:46:32;7.05;;;2.50;;
76606;SDS011;65498;50.916;4.698;2022-12-07T05:49:00;5.55;;;2.40;;
76606;SDS011;65498;50.916;4.698;2022-12-07T05:51:28;6.50;;;2.58;;
76606;SDS011;65498;50.916;4.698;2022-12-07T05:53:56;6.72;;;2.70;;
76606;SDS011;65498;50.916;4.698;2022-12-07T05:56:24;6.08;;;2.55;;
76606;SDS011;65498;50.916;4.698;2022-12-07T05:58:53;5.72;;;2.17;;
76606;SDS011;65498;50.916;4.698;2022-12-07T06:01:38;6.80;;;2.30;;
76606;SDS011;65498;50.916;4.698;2022-12-07T06:04:07;5.97;;;2.22;;
76606;SDS011;65498;50.916;4.698;2022-12-07T06:06:34;7.08;;;2.72;;
76606;SDS011;65498;50.916;4.698;2022-12-07T06:09:02;6.25;;;2.30;;
76606;SDS011;65498;50.916;4.698;2022-12-07T06:11:30;6.25;;;2.22;;
76606;SDS011;65498;50.916;4.698;2022-12-07T06:14:16;6.05;;;2.25;;
76606;SDS011;65498;50.916;4.698;2022-12-07T06:16:44;6.45;;;2.30;;
76606;SDS011;65498;50.916;4.698;2022-12-07T06:19:11;5.87;;;2.10;;
76606;SDS011;65498;50.916;4.698;2022-12-07T06:21:39;5.95;;;2.42;;
76606;SDS011;65498;50.916;4.698;2022-12-07T06:24:07;5.92;;;2.45;;
76606;SDS011;65498;50.916;4.698;2022-12-07T06:26:37;6.30;;;2.45;;
76606;SDS011;65498;50.916;4.698;2022-12-07T06:29:05;5.97;;;2.20;;
76606;SDS011;65498;50.916;4.698;2022-12-07T06:31:33;5.40;;;2.10;;
76606;SDS011;65498;50.916;4.698;2022-12-07T06:34:02;7.00;;;2.67;;
76606;SDS011;65498;50.916;4.698;2022-12-07T06:36:32;6.50;;;2.42;;
76606;SDS011;65498;50.916;4.698;2022-12-07T06:38:59;6.12;;;2.27;;
76606;SDS011;65498;50.916;4.698;2022-12-07T06:41:27;4.58;;;2.00;;
76606;SDS011;65498;50.916;4.698;2022-12-07T06:43:55;8.68;;;2.22;;
76606;SDS011;65498;50.916;4.698;2022-12-07T06:46:23;5.70;;;2.40;;
76606;SDS011;65498;50.916;4.698;2022-12-07T06:48:51;7.05;;;2.25;;
76606;SDS011;65498;50.916;4.698;2022-12-07T06:51:18;6.03;;;3.12;;
76606;SDS011;65498;50.916;4.698;2022-12-07T06:53:46;5.17;;;2.20;;
76606;SDS011;65498;50.916;4.698;2022-12-07T06:56:14;4.92;;;1.92;;
76606;SDS011;65498;50.916;4.698;2022-12-07T06:58:41;6.45;;;2.30;;
76606;SDS011;65498;50.916;4.698;2022-12-07T07:01:10;5.20;;;1.98;;
76606;SDS011;65498;50.916;4.698;2022-12-07T07:03:43;5.45;;;1.90;;
76606;SDS011;65498;50.916;4.698;2022-12-07T07:06:11;4.95;;;2.12;;
76606;SDS011;65498;50.916;4.698;2022-12-07T07:08:39;5.90;;;1.90;;
76606;SDS011;65498;50.916;4.698;2022-12-07T07:11:07;5.17;;;1.90;;
76606;SDS011;65498;50.916;4.698;2022-12-07T07:13:36;4.30;;;1.70;;
76606;SDS011;65498;50.916;4.698;2022-12-07T07:16:04;6.67;;;1.95;;
76606;SDS011;65498;50.916;4.698;2022-12-07T07:18:32;5.80;;;1.95;;
76606;SDS011;65498;50.916;4.698;2022-12-07T07:21:00;6.50;;;2.42;;
76606;SDS011;65498;50.916;4.698;2022-12-07T07:23:28;5.05;;;1.98;;
76606;SDS011;65498;50.916;4.698;2022-12-07T07:25:55;6.85;;;2.52;;
76606;SDS011;65498;50.916;4.698;2022-12-07T07:28:23;4.80;;;1.80;;
76606;SDS011;65498;50.916;4.698;2022-12-07T07:30:52;5.00;;;2.05;;
76606;SDS011;65498;50.916;4.698;2022-12-07T07:33:19;4.75;;;1.90;;
76606;SDS011;65498;50.916;4.698;2022-12-07T07:35:47;6.25;;;2.08;;
76606;SDS011;65498;50.916;4.698;2022-12-07T07:38:15;6.78;;;2.10;;
76606;SDS011;65498;50.916;4.698;2022-12-07T07:40:43;5.25;;;1.90;;
76606;SDS011;65498;50.916;4.698;2022-12-07T07:43:11;4.40;;;1.77;;
76606;SDS011;65498;50.916;4.698;2022-12-07T07:45:38;4.37;;;1.80;;
76606;SDS011;65498;50.916;4.698;2022-12-07T07:48:06;5.28;;;2.00;;
76606;SDS011;65498;50.916;4.698;2022-12-07T07:50:34;5.87;;;2.33;;
76606;SDS011;65498;50.916;4.698;2022-12-07T07:53:01;5.00;;;1.90;;
76606;SDS011;65498;50.916;4.698;2022-12-07T07:55:29;5.53;;;2.10;;
76606;SDS011;65498;50.916;4.698;2022-12-07T07:57:57;4.45;;;1.80;;
76606;SDS011;65498;50.916;4.698;2022-12-07T08:00:24;5.78;;;2.17;;
76606;SDS011;65498;50.916;4.698;2022-12-07T08:02:52;4.40;;;1.72;;
76606;SDS011;65498;50.916;4.698;2022-12-07T08:05:19;4.65;;;2.05;;
76606;SDS011;65498;50.916;4.698;2022-12-07T08:07:47;4.33;;;1.80;;
76606;SDS011;65498;50.916;4.698;2022-12-07T08:10:15;5.08;;;1.90;;
76606;SDS011;65498;50.916;4.698;2022-12-07T08:12:43;7.22;;;1.80;;
76606;SDS011;65498;50.916;4.698;2022-12-07T08:15:29;5.67;;;2.02;;
76606;SDS011;65498;50.916;4.698;2022-12-07T08:17:58;5.50;;;2.02;;
76606;SDS011;65498;50.916;4.698;2022-12-07T08:20:25;6.78;;;1.82;;
76606;SDS011;65498;50.916;4.698;2022-12-07T08:22:53;5.60;;;1.90;;
76606;SDS011;65498;50.916;4.698;2022-12-07T08:25:21;5.60;;;1.92;;
76606;SDS011;65498;50.916;4.698;2022-12-07T08:27:48;4.70;;;1.80;;
76606;SDS011;65498;50.916;4.698;2022-12-07T08:30:17;7.28;;;1.95;;
76606;SDS011;65498;50.916;4.698;2022-12-07T08:32:46;5.08;;;1.82;;
76606;SDS011;65498;50.916;4.698;2022-12-07T08:35:14;5.72;;;2.10;;
76606;SDS011;65498;50.916;4.698;2022-12-07T08:37:42;4.08;;;1.42;;
76606;SDS011;65498;50.916;4.698;2022-12-07T08:40:10;4.85;;;1.90;;
76606;SDS011;65498;50.916;4.698;2022-12-07T08:42:42;6.60;;;2.30;;
76606;SDS011;65498;50.916;4.698;2022-12-07T08:45:11;4.70;;;2.08;;
76606;SDS011;65498;50.916;4.698;2022-12-07T08:47:42;5.20;;;1.75;;
76606;SDS011;65498;50.916;4.698;2022-12-07T08:50:14;5.37;;;1.67;;
76606;SDS011;65498;50.916;4.698;2022-12-07T08:52:43;4.75;;;1.87;;
76606;SDS011;65498;50.916;4.698;2022-12-07T08:55:11;4.97;;;1.90;;
76606;SDS011;65498;50.916;4.698;2022-12-07T08:57:38;4.97;;;1.87;;
76606;SDS011;65498;50.916;4.698;2022-12-07T09:00:07;5.33;;;2.00;;
76606;SDS011;65498;50.916;4.698;2022-12-07T09:02:35;4.97;;;2.00;;
76606;SDS011;65498;50.916;4.698;2022-12-07T09:05:03;5.47;;;2.00;;
76606;SDS011;65498;50.916;4.698;2022-12-07T09:07:32;4.85;;;1.90;;
76606;SDS011;65498;50.916;4.698;2022-12-07T09:10:00;5.10;;;1.90;;
76606;SDS011;65498;50.916;4.698;2022-12-07T09:12:28;4.90;;;1.80;;
76606;SDS011;65498;50.916;4.698;2022-12-07T09:14:56;4.62;;;1.70;;
76606;SDS011;65498;50.916;4.698;2022-12-07T09:17:23;4.20;;;1.85;;
76606;SDS011;65498;50.916;4.698;2022-12-07T09:19:51;5.55;;;1.77;;
76606;SDS011;65498;50.916;4.698;2022-12-07T09:22:19;5.78;;;1.80;;
76606;SDS011;65498;50.916;4.698;2022-12-07T09:24:47;5.92;;;1.77;;
76606;SDS011;65498;50.916;4.698;2022-12-07T09:27:14;4.85;;;1.80;;
76606;SDS011;65498;50.916;4.698;2022-12-07T09:29:43;5.05;;;1.70;;
76606;SDS011;65498;50.916;4.698;2022-12-07T09:32:11;4.85;;;1.82;;
76606;SDS011;65498;50.916;4.698;2022-12-07T09:34:38;5.58;;;1.92;;
76606;SDS011;65498;50.916;4.698;2022-12-07T09:37:06;8.10;;;2.75;;
76606;SDS011;65498;50.916;4.698;2022-12-07T09:39:34;5.40;;;2.00;;
76606;SDS011;65498;50.916;4.698;2022-12-07T09:42:03;6.75;;;1.85;;
76606;SDS011;65498;50.916;4.698;2022-12-07T09:44:32;4.60;;;1.87;;
76606;SDS011;65498;50.916;4.698;2022-12-07T09:47:01;5.47;;;1.62;;
76606;SDS011;65498;50.916;4.698;2022-12-07T09:49:31;5.05;;;1.67;;
76606;SDS011;65498;50.916;4.698;2022-12-07T09:52:00;6.75;;;1.70;;
76606;SDS011;65498;50.916;4.698;2022-12-07T09:54:29;5.33;;;1.85;;
76606;SDS011;65498;50.916;4.698;2022-12-07T09:56:58;7.58;;;2.22;;
76606;SDS011;65498;50.916;4.698;2022-12-07T09:59:26;6.35;;;1.90;;
76606;SDS011;65498;50.916;4.698;2022-12-07T10:01:53;5.22;;;2.00;;
76606;SDS011;65498;50.916;4.698;2022-12-07T10:04:23;5.78;;;2.10;;
76606;SDS011;65498;50.916;4.698;2022-12-07T10:06:52;7.33;;;2.10;;
76606;SDS011;65498;50.916;4.698;2022-12-07T10:09:20;7.58;;;2.47;;
76606;SDS011;65498;50.916;4.698;2022-12-07T10:11:58;4.60;;;1.60;;
76606;SDS011;65498;50.916;4.698;2022-12-07T10:14:27;5.67;;;1.80;;
76606;SDS011;65498;50.916;4.698;2022-12-07T10:16:57;6.83;;;2.02;;
76606;SDS011;65498;50.916;4.698;2022-12-07T10:19:33;4.90;;;1.80;;
76606;SDS011;65498;50.916;4.698;2022-12-07T10:22:04;5.72;;;2.08;;
76606;SDS011;65498;50.916;4.698;2022-12-07T10:24:39;4.12;;;1.55;;
76606;SDS011;65498;50.916;4.698;2022-12-07T10:29:49;5.80;;;1.82;;
76606;SDS011;65498;50.916;4.698;2022-12-07T10:34:49;4.55;;;1.85;;
76606;SDS011;65498;50.916;4.698;2022-12-07T10:37:17;4.05;;;1.47;;
76606;SDS011;65498;50.916;4.698;2022-12-07T10:39:48;4.75;;;2.10;;
76606;SDS011;65498;50.916;4.698;2022-12-07T10:44:45;4.80;;;1.70;;
76606;SDS011;65498;50.916;4.698;2022-12-07T11:01:33;6.40;;;1.95;;
76606;SDS011;65498;50.916;4.698;2022-12-07T11:04:14;6.03;;;1.70;;
76606;SDS011;65498;50.916;4.698;2022-12-07T11:07:02;4.85;;;1.72;;
76606;SDS011;65498;50.916;4.698;2022-12-07T11:12:35;5.72;;;1.65;;
76606;SDS011;65498;50.916;4.698;2022-12-07T11:20:46;4.10;;;1.30;;
76606;SDS011;65498;50.916;4.698;2022-12-07T11:26:41;5.70;;;1.45;;
76606;SDS011;65498;50.916;4.698;2022-12-07T11:32:45;5.72;;;1.70;;
76606;SDS011;65498;50.916;4.698;2022-12-07T11:35:38;5.60;;;1.67;;
76606;SDS011;65498;50.916;4.698;2022-12-07T11:38:17;4.37;;;1.70;;
76606;SDS011;65498;50.916;4.698;2022-12-07T11:40:46;5.22;;;1.70;;
76606;SDS011;65498;50.916;4.698;2022-12-07T11:51:20;4.95;;;1.90;;
76606;SDS011;65498;50.916;4.698;2022-12-07T11:53:51;4.97;;;1.80;;
76606;SDS011;65498;50.916;4.698;2022-12-07T11:56:20;5.33;;;1.60;;
76606;SDS011;65498;50.916;4.698;2022-12-07T12:01:58;5.30;;;1.65;;
76606;SDS011;65498;50.916;4.698;2022-12-07T12:07:05;4.47;;;1.47;;
76606;SDS011;65498;50.916;4.698;2022-12-07T12:09:40;5.35;;;1.70;;
76606;SDS011;65498;50.916;4.698;2022-12-07T12:18:05;3.90;;;1.47;;
76606;SDS011;65498;50.916;4.698;2022-12-07T12:20:55;4.40;;;1.72;;
76606;SDS011;65498;50.916;4.698;2022-12-07T12:23:33;6.92;;;2.10;;
76606;SDS011;65498;50.916;4.698;2022-12-07T12:26:20;6.95;;;2.95;;
76606;SDS011;65498;50.916;4.698;2022-12-07T12:28:57;4.08;;;1.70;;
76606;SDS011;65498;50.916;4.698;2022-12-07T12:34:29;5.97;;;1.65;;
76606;SDS011;65498;50.916;4.698;2022-12-07T12:36:52;5.70;;;1.57;;
76606;SDS011;65498;50.916;4.698;2022-12-07T12:39:20;4.00;;;1.32;;
76606;SDS011;65498;50.916;4.698;2022-12-07T12:41:53;4.37;;;1.55;;
76606;SDS011;65498;50.916;4.698;2022-12-07T12:46:58;7.80;;;2.92;;
76606;SDS011;65498;50.916;4.698;2022-12-07T12:49:38;9.18;;;2.10;;
76606;SDS011;65498;50.916;4.698;2022-12-07T12:57:37;7.95;;;2.22;;
76606;SDS011;65498;50.916;4.698;2022-12-07T13:00:21;7.35;;;1.82;;
76606;SDS011;65498;50.916;4.698;2022-12-07T13:02:53;5.70;;;1.70;;
76606;SDS011;65498;50.916;4.698;2022-12-07T13:07:57;9.23;;;3.45;;
76606;SDS011;65498;50.916;4.698;2022-12-07T13:13:01;7.65;;;1.92;;
76606;SDS011;65498;50.916;4.698;2022-12-07T13:15:47;6.47;;;1.70;;
76606;SDS011;65498;50.916;4.698;2022-12-07T13:26:22;6.00;;;1.87;;
76606;SDS011;65498;50.916;4.698;2022-12-07T13:28:51;5.33;;;1.87;;
76606;SDS011;65498;50.916;4.698;2022-12-07T13:31:34;4.65;;;1.70;;
76606;SDS011;65498;50.916;4.698;2022-12-07T13:37:01;4.08;;;1.42;;
76606;SDS011;65498;50.916;4.698;2022-12-07T13:39:34;6.70;;;1.57;;
76606;SDS011;65498;50.916;4.698;2022-12-07T13:42:07;6.00;;;1.70;;
76606;SDS011;65498;50.916;4.698;2022-12-07T13:44:34;7.03;;;1.70;;
76606;SDS011;65498;50.916;4.698;2022-12-07T13:47:13;12.45;;;3.87;;
76606;SDS011;65498;50.916;4.698;2022-12-07T13:49:51;80.62;;;36.10;;
76606;SDS011;65498;50.916;4.698;2022-12-07T13:52:17;67.35;;;32.00;;
76606;SDS011;65498;50.916;4.698;2022-12-07T13:54:55;85.57;;;38.67;;
76606;SDS011;65498;50.916;4.698;2022-12-07T13:57:26;73.62;;;31.97;;
76606;SDS011;65498;50.916;4.698;2022-12-07T13:59:56;72.65;;;33.15;;
76606;SDS011;65498;50.916;4.698;2022-12-07T14:02:28;69.12;;;32.88;;
76606;SDS011;65498;50.916;4.698;2022-12-07T14:05:09;64.07;;;34.00;;
76606;SDS011;65498;50.916;4.698;2022-12-07T14:10:30;79.37;;;34.80;;
76606;SDS011;65498;50.916;4.698;2022-12-07T14:13:03;86.75;;;38.80;;
76606;SDS011;65498;50.916;4.698;2022-12-07T14:15:33;94.77;;;40.20;;
76606;SDS011;65498;50.916;4.698;2022-12-07T14:18:02;96.87;;;43.63;;
76606;SDS011;65498;50.916;4.698;2022-12-07T14:20:31;92.33;;;41.48;;
76606;SDS011;65498;50.916;4.698;2022-12-07T14:23:03;93.90;;;40.33;;
76606;SDS011;65498;50.916;4.698;2022-12-07T14:25:48;86.47;;;38.60;;
76606;SDS011;65498;50.916;4.698;2022-12-07T14:28:28;86.63;;;39.38;;
76606;SDS011;65498;50.916;4.698;2022-12-07T14:30:58;75.35;;;37.38;;
76606;SDS011;65498;50.916;4.698;2022-12-07T14:33:26;78.05;;;36.23;;
76606;SDS011;65498;50.916;4.698;2022-12-07T14:35:54;77.08;;;36.65;;
76606;SDS011;65498;50.916;4.698;2022-12-07T14:38:24;69.20;;;33.03;;
76606;SDS011;65498;50.916;4.698;2022-12-07T14:40:52;81.75;;;35.40;;
76606;SDS011;65498;50.916;4.698;2022-12-07T14:43:23;79.90;;;33.92;;
76606;SDS011;65498;50.916;4.698;2022-12-07T14:45:50;78.40;;;36.55;;
76606;SDS011;65498;50.916;4.698;2022-12-07T14:48:18;80.83;;;34.33;;
76606;SDS011;65498;50.916;4.698;2022-12-07T14:50:52;65.97;;;33.40;;
76606;SDS011;65498;50.916;4.698;2022-12-07T14:53:17;69.67;;;32.45;;
76606;SDS011;65498;50.916;4.698;2022-12-07T14:55:47;69.85;;;32.98;;
76606;SDS011;65498;50.916;4.698;2022-12-07T14:58:15;67.60;;;30.80;;
76606;SDS011;65498;50.916;4.698;2022-12-07T15:00:44;67.85;;;31.97;;
76606;SDS011;65498;50.916;4.698;2022-12-07T15:03:13;59.25;;;28.23;;
76606;SDS011;65498;50.916;4.698;2022-12-07T15:05:41;60.52;;;29.90;;
76606;SDS011;65498;50.916;4.698;2022-12-07T15:08:09;57.98;;;29.12;;
76606;SDS011;65498;50.916;4.698;2022-12-07T15:10:39;61.58;;;29.77;;
76606;SDS011;65498;50.916;4.698;2022-12-07T15:13:07;57.70;;;28.70;;
76606;SDS011;65498;50.916;4.698;2022-12-07T15:15:53;57.65;;;27.70;;
76606;SDS011;65498;50.916;4.698;2022-12-07T15:18:21;53.07;;;28.63;;
76606;SDS011;65498;50.916;4.698;2022-12-07T15:20:50;55.43;;;27.80;;
76606;SDS011;65498;50.916;4.698;2022-12-07T15:23:18;56.90;;;27.02;;
76606;SDS011;65498;50.916;4.698;2022-12-07T15:25:47;51.63;;;26.57;;
76606;SDS011;65498;50.916;4.698;2022-12-07T15:28:15;57.55;;;27.27;;
76606;SDS011;65498;50.916;4.698;2022-12-07T15:30:43;53.98;;;25.80;;
76606;SDS011;65498;50.916;4.698;2022-12-07T15:33:11;49.90;;;24.63;;
76606;SDS011;65498;50.916;4.698;2022-12-07T15:35:40;51.00;;;24.80;;
76606;SDS011;65498;50.916;4.698;2022-12-07T15:38:09;52.25;;;24.87;;
76606;SDS011;65498;50.916;4.698;2022-12-07T15:40:37;46.88;;;22.60;;
76606;SDS011;65498;50.916;4.698;2022-12-07T15:43:05;54.67;;;25.17;;
76606;SDS011;65498;50.916;4.698;2022-12-07T15:45:36;48.55;;;22.98;;
76606;SDS011;65498;50.916;4.698;2022-12-07T15:48:04;46.50;;;22.75;;
76606;SDS011;65498;50.916;4.698;2022-12-07T15:50:31;46.88;;;21.68;;
76606;SDS011;65498;50.916;4.698;2022-12-07T15:52:59;43.85;;;21.05;;
76606;SDS011;65498;50.916;4.698;2022-12-07T15:55:26;44.88;;;22.20;;
76606;SDS011;65498;50.916;4.698;2022-12-07T15:57:54;45.03;;;22.25;;
76606;SDS011;65498;50.916;4.698;2022-12-07T16:00:22;42.45;;;22.93;;
76606;SDS011;65498;50.916;4.698;2022-12-07T16:02:50;45.28;;;23.35;;
76606;SDS011;65498;50.916;4.698;2022-12-07T16:05:18;43.02;;;19.85;;
76606;SDS011;65498;50.916;4.698;2022-12-07T16:07:45;40.75;;;21.65;;
76606;SDS011;65498;50.916;4.698;2022-12-07T16:10:13;44.83;;;21.42;;
76606;SDS011;65498;50.916;4.698;2022-12-07T16:12:41;43.48;;;20.25;;
76606;SDS011;65498;50.916;4.698;2022-12-07T16:15:08;42.15;;;19.73;;
76606;SDS011;65498;50.916;4.698;2022-12-07T16:17:36;37.70;;;19.05;;
76606;SDS011;65498;50.916;4.698;2022-12-07T16:20:05;37.40;;;19.50;;
76606;SDS011;65498;50.916;4.698;2022-12-07T16:22:33;37.90;;;18.35;;
76606;SDS011;65498;50.916;4.698;2022-12-07T16:25:01;35.50;;;18.27;;
76606;SDS011;65498;50.916;4.698;2022-12-07T16:27:29;36.20;;;17.00;;
76606;SDS011;65498;50.916;4.698;2022-12-07T16:29:57;39.70;;;19.00;;
76606;SDS011;65498;50.916;4.698;2022-12-07T16:32:25;37.53;;;18.20;;
76606;SDS011;65498;50.916;4.698;2022-12-07T16:34:52;33.95;;;16.95;;
76606;SDS011;65498;50.916;4.698;2022-12-07T16:37:20;34.03;;;17.35;;
76606;SDS011;65498;50.916;4.698;2022-12-07T16:39:48;35.00;;;17.12;;
76606;SDS011;65498;50.916;4.698;2022-12-07T16:42:16;34.23;;;17.10;;
76606;SDS011;65498;50.916;4.698;2022-12-07T16:44:43;38.23;;;17.17;;
76606;SDS011;65498;50.916;4.698;2022-12-07T16:47:11;31.35;;;16.05;;
76606;SDS011;65498;50.916;4.698;2022-12-07T16:49:38;33.50;;;15.60;;
76606;SDS011;65498;50.916;4.698;2022-12-07T16:52:06;30.88;;;15.28;;
76606;SDS011;65498;50.916;4.698;2022-12-07T16:54:33;33.28;;;16.15;;
76606;SDS011;65498;50.916;4.698;2022-12-07T16:57:02;33.63;;;14.68;;
76606;SDS011;65498;50.916;4.698;2022-12-07T16:59:30;29.87;;;14.58;;
76606;SDS011;65498;50.916;4.698;2022-12-07T17:01:57;33.53;;;15.40;;
76606;SDS011;65498;50.916;4.698;2022-12-07T17:04:25;27.52;;;14.75;;
76606;SDS011;65498;50.916;4.698;2022-12-07T17:06:53;27.10;;;13.30;;
76606;SDS011;65498;50.916;4.698;2022-12-07T17:09:21;28.20;;;14.83;;
76606;SDS011;65498;50.916;4.698;2022-12-07T17:11:48;26.60;;;13.45;;
76606;SDS011;65498;50.916;4.698;2022-12-07T17:14:16;27.25;;;13.38;;
76606;SDS011;65498;50.916;4.698;2022-12-07T17:17:01;27.02;;;13.00;;
76606;SDS011;65498;50.916;4.698;2022-12-07T17:19:30;25.82;;;12.30;;